Time;durP1;ratioP1;P1;durP2;ratioP2;P2;SDS_P1;SDS_P2;PMS_P1;PMS_P2;Temp;Humidity;BMP_temperature;BMP_pressure;BME280_temperature;BME280_humidity;BME280_pressure;Samples;Min_cycle;Max_cycle;Signal;HPM_P1;HPM_P2
2022/09/23 00:01:25;;;;;;;2.75;1.73;;;14.30;82.40;;;;;;10022688;28;20354;-56
2022/09/23 00:06:21;;;;;;;4.88;2.53;;;14.20;82.70;;;;;;10031017;28;20128;-61
2022/09/23 00:11:18;;;;;;;5.75;2.60;;;14.10;83.10;;;;;;10024539;28;20052;-58
2022/09/23 00:16:14;;;;;;;3.05;2.50;;;14.00;83.40;;;;;;10015671;28;20135;-55
2022/09/23 00:21:08;;;;;;;3.05;2.05;;;14.10;84.00;;;;;;10017393;28;20781;-57
2022/09/23 00:26:01;;;;;;;4.47;2.15;;;14.00;84.30;;;;;;10022278;28;20072;-59
2022/09/23 00:30:52;;;;;;;3.85;2.03;;;14.00;84.80;;;;;;10036222;28;20229;-58
2022/09/23 00:35:42;;;;;;;2.83;1.65;;;14.00;85.20;;;;;;10037843;28;20250;-58
2022/09/23 00:40:35;;;;;;;4.88;2.33;;;14.00;85.70;;;;;;10032573;28;20500;-57
2022/09/23 00:45:25;;;;;;;6.50;3.30;;;14.10;86.10;;;;;;10027444;28;20451;-58
2022/09/23 00:50:29;;;;;;;5.50;2.45;;;14.10;86.20;;;;;;10018578;28;20034;-62
2022/09/23 00:55:25;;;;;;;2.75;1.95;;;14.00;86.90;;;;;;10026503;28;20025;-59
2022/09/23 01:00:16;;;;;;;2.33;2.00;;;13.90;87.20;;;;;;10021418;28;20145;-56
2022/09/23 01:05:07;;;;;;;2.22;1.58;;;13.80;87.80;;;;;;10024687;28;20088;-60
2022/09/23 01:09:59;;;;;;;3.65;2.25;;;13.80;88.20;;;;;;10024219;28;20131;-56
2022/09/23 01:15:17;;;;;;;4.38;1.73;;;13.90;88.40;;;;;;10020012;28;20075;-53
2022/09/23 01:20:20;;;;;;;3.63;1.95;;;13.50;89.30;;;;;;10030495;28;20022;-63
2022/09/23 01:25:39;;;;;;;4.40;1.80;;;13.50;90.20;;;;;;10016670;28;20109;-58
2022/09/23 01:30:51;;;;;;;2.80;2.08;;;13.40;90.10;;;;;;10022462;28;20471;-59
2022/09/23 01:35:41;;;;;;;2.08;1.60;;;13.10;90.20;;;;;;10029902;28;20080;-58
2022/09/23 01:40:51;;;;;;;2.50;1.50;;;12.90;90.70;;;;;;10024834;28;20041;-57
2022/09/23 01:45:46;;;;;;;2.45;1.40;;;13.00;90.80;;;;;;10031490;28;20036;-58
2022/09/23 01:50:57;;;;;;;1.42;1.30;;;13.10;91.00;;;;;;10028210;28;20100;-56
2022/09/23 01:55:55;;;;;;;4.40;1.73;;;13.20;91.10;;;;;;10031504;28;20511;-59
2022/09/23 02:00:55;;;;;;;3.40;1.50;;;13.30;91.30;;;;;;10019403;28;20105;-58
2022/09/23 02:06:07;;;;;;;2.75;1.80;;;13.30;91.40;;;;;;10025948;28;20029;-58
2022/09/23 02:11:07;;;;;;;5.28;1.80;;;13.20;91.70;;;;;;10019542;28;20100;-57
2022/09/23 02:16:07;;;;;;;3.22;1.60;;;13.20;92.00;;;;;;10018078;28;20163;-59
2022/09/23 02:21:03;;;;;;;2.15;1.58;;;13.30;92.10;;;;;;10034071;28;20052;-60
2022/09/23 02:26:03;;;;;;;4.35;1.60;;;13.20;92.30;;;;;;10024544;28;20030;-62
2022/09/23 02:31:22;;;;;;;2.05;1.70;;;13.20;92.40;;;;;;10026148;28;20037;-57
2022/09/23 02:36:22;;;;;;;2.65;1.92;;;13.30;92.70;;;;;;9995264;28;20046;-57
2022/09/23 02:41:27;;;;;;;2.83;2.03;;;13.10;92.90;;;;;;10019314;28;20025;-58
2022/09/23 02:46:18;;;;;;;2.42;1.35;;;13.10;93.00;;;;;;10015481;28;20033;-59
2022/09/23 02:51:11;;;;;;;2.17;1.77;;;13.20;93.10;;;;;;10019838;28;20308;-58
2022/09/23 02:56:16;;;;;;;3.88;1.67;;;13.10;93.30;;;;;;10018927;28;20105;-61
2022/09/23 03:01:32;;;;;;;4.00;1.88;;;13.00;93.50;;;;;;10020220;28;20469;-60
2022/09/23 03:06:35;;;;;;;;;;;12.90;93.70;;;;;;10025247;28;20289;-58
2022/09/23 03:11:25;;;;;;;3.17;2.13;;;12.90;93.90;;;;;;10018930;28;19913;-60
2022/09/23 03:16:34;;;;;;;3.83;2.30;;;12.80;93.90;;;;;;10020589;28;20029;-56
2022/09/23 03:21:44;;;;;;;6.00;2.30;;;12.80;94.20;;;;;;10023784;28;20030;-57
2022/09/23 03:26:37;;;;;;;3.63;2.25;;;12.90;94.40;;;;;;10019186;28;20554;-58
2022/09/23 03:31:28;;;;;;;3.58;2.10;;;12.80;94.50;;;;;;10016713;28;20057;-61
2022/09/23 03:41:48;;;;;;;4.65;2.50;;;12.70;95.10;;;;;;10026273;28;20155;-57
2022/09/23 03:46:48;;;;;;;3.70;2.67;;;12.60;95.40;;;;;;10016966;28;20057;-55
2022/09/23 03:51:38;;;;;;;3.70;2.33;;;12.60;95.60;;;;;;10021157;28;20407;-58
2022/09/23 03:56:29;;;;;;;3.95;2.58;;;12.60;95.80;;;;;;10018223;28;20014;-59
2022/09/23 04:01:20;;;;;;;8.10;3.22;;;12.60;96.00;;;;;;10016459;28;20148;-57
2022/09/23 04:06:10;;;;;;;5.65;2.88;;;12.60;96.30;;;;;;10014227;28;20026;-57
2022/09/23 04:11:03;;;;;;;5.93;2.90;;;12.60;96.30;;;;;;10017662;28;20287;-60
2022/09/23 04:15:54;;;;;;;6.28;3.30;;;12.50;96.60;;;;;;10015246;28;20029;-56
2022/09/23 04:20:45;;;;;;;4.97;3.13;;;12.50;96.90;;;;;;10018233;28;20030;-56
2022/09/23 04:25:42;;;;;;;7.00;3.35;;;12.30;97.00;;;;;;10032750;28;20507;-58
2022/09/23 04:30:33;;;;;;;5.38;2.88;;;12.40;97.20;;;;;;10037511;28;20044;-63
2022/09/23 04:35:23;;;;;;;5.65;3.65;;;12.30;97.50;;;;;;10029180;28;20128;-60
2022/09/23 04:40:14;;;;;;;7.28;3.00;;;12.30;97.60;;;;;;10018449;28;20034;-56
2022/09/23 04:45:05;;;;;;;4.55;2.80;;;12.30;97.70;;;;;;10021083;28;20026;-56
2022/09/23 04:49:56;;;;;;;4.28;2.80;;;12.20;98.00;;;;;;10021181;28;20053;-58
2022/09/23 04:54:46;;;;;;;4.32;3.13;;;12.20;98.20;;;;;;10042967;28;20923;-59
2022/09/23 04:59:37;;;;;;;4.38;2.63;;;12.20;98.50;;;;;;10027360;28;20026;-57
2022/09/23 05:04:30;;;;;;;4.03;2.85;;;12.10;98.60;;;;;;10023616;28;20049;-64
2022/09/23 05:09:20;;;;;;;4.07;3.03;;;12.10;98.80;;;;;;10019609;28;20025;-56
2022/09/23 05:14:12;;;;;;;6.20;3.10;;;12.10;99.00;;;;;;10012640;28;20033;-60
2022/09/23 05:19:02;;;;;;;3.42;2.90;;;12.10;99.10;;;;;;10017128;28;20513;-57
2022/09/23 05:23:57;;;;;;;4.13;2.90;;;12.00;99.30;;;;;;10026417;28;20022;-63
2022/09/23 05:28:48;;;;;;;4.28;3.22;;;12.00;99.40;;;;;;10022287;28;20034;-57
2022/09/23 05:33:39;;;;;;;4.65;3.58;;;12.00;99.60;;;;;;10023792;28;20053;-58
2022/09/23 05:38:30;;;;;;;5.15;3.15;;;12.00;99.70;;;;;;10033080;28;20060;-59
2022/09/23 05:43:21;;;;;;;5.28;3.00;;;12.10;99.80;;;;;;10027748;28;20060;-57
2022/09/23 05:48:12;;;;;;;4.88;3.03;;;12.00;99.90;;;;;;10021959;28;20377;-58
2022/09/23 05:53:02;;;;;;;4.38;3.13;;;12.00;99.90;;;;;;10016976;28;20072;-56
2022/09/23 05:57:53;;;;;;;6.65;3.08;;;11.90;99.90;;;;;;10032865;28;20048;-58
2022/09/23 06:02:47;;;;;;;4.20;2.97;;;12.10;99.90;;;;;;10026318;28;20033;-62
2022/09/23 06:07:38;;;;;;;7.30;3.47;;;12.30;99.90;;;;;;10027004;28;20013;-65
2022/09/23 06:12:28;;;;;;;4.60;2.88;;;12.30;99.90;;;;;;10020926;28;20603;-56
2022/09/23 06:17:19;;;;;;;4.53;3.30;;;12.30;99.90;;;;;;10013884;28;20022;-57
2022/09/23 06:22:10;;;;;;;4.82;3.03;;;12.20;99.90;;;;;;10018670;28;20036;-58
2022/09/23 06:27:01;;;;;;;4.93;3.13;;;12.40;99.90;;;;;;10017871;28;20022;-56
2022/09/23 06:31:52;;;;;;;6.03;2.97;;;12.20;99.90;;;;;;10013735;28;20076;-58
2022/09/23 06:36:43;;;;;;;7.00;3.10;;;12.00;99.90;;;;;;10018232;28;20018;-60
2022/09/23 06:41:34;;;;;;;5.22;3.83;;;12.10;99.90;;;;;;10016413;28;20702;-60
2022/09/23 06:46:24;;;;;;;3.47;2.80;;;12.20;99.90;;;;;;10013631;28;20022;-60
2022/09/23 06:51:18;;;;;;;6.18;3.50;;;12.10;99.90;;;;;;10014096;28;20150;-61
2022/09/23 06:56:10;;;;;;;6.03;3.53;;;12.30;99.90;;;;;;10016320;28;20033;-59
2022/09/23 07:01:03;;;;;;;5.45;3.83;;;12.40;99.90;;;;;;10015715;28;20439;-59
2022/09/23 07:05:55;;;;;;;9.18;4.40;;;12.50;99.90;;;;;;10017797;28;20018;-63
2022/09/23 07:10:51;;;;;;;6.93;3.50;;;12.60;99.90;;;;;;10013720;28;20041;-61
2022/09/23 07:15:49;;;;;;;8.48;3.80;;;12.60;99.90;;;;;;10014590;28;20400;-61
2022/09/23 07:20:40;;;;;;;4.18;3.65;;;12.70;99.90;;;;;;10018838;28;20061;-61
2022/09/23 07:25:32;;;;;;;6.32;3.97;;;12.80;99.90;;;;;;10019646;28;20026;-61
2022/09/23 07:30:23;;;;;;;6.10;3.63;;;12.60;99.90;;;;;;10023871;28;20472;-63
2022/09/23 07:35:14;;;;;;;4.30;3.22;;;12.70;99.90;;;;;;10026162;28;20050;-59
2022/09/23 07:40:05;;;;;;;3.80;3.03;;;12.80;99.90;;;;;;10017889;28;20032;-58
2022/09/23 07:44:56;;;;;;;8.10;3.92;;;12.90;99.90;;;;;;10024312;28;20049;-60
2022/09/23 07:49:47;;;;;;;6.22;3.50;;;13.10;99.90;;;;;;10018878;28;20037;-61
2022/09/23 07:54:37;;;;;;;5.75;3.67;;;13.10;99.90;;;;;;10013475;28;20029;-59
2022/09/23 07:59:28;;;;;;;7.55;3.17;;;13.20;99.90;;;;;;10016176;28;20025;-62
2022/09/23 08:04:28;;;;;;;4.45;3.67;;;13.30;99.90;;;;;;10036627;28;20104;-61
2022/09/23 08:09:21;;;;;;;5.85;3.22;;;13.40;99.90;;;;;;10024388;28;20856;-62
2022/09/23 08:14:14;;;;;;;4.97;3.10;;;13.60;99.90;;;;;;10023915;28;20045;-60
2022/09/23 08:19:05;;;;;;;6.07;3.83;;;13.70;99.90;;;;;;10023029;28;20720;-64
2022/09/23 08:23:56;;;;;;;7.68;4.13;;;13.90;99.90;;;;;;10029828;28;20519;-64
2022/09/23 08:28:47;;;;;;;6.18;3.88;;;14.00;99.90;;;;;;10026215;28;20040;-65
2022/09/23 08:33:39;;;;;;;6.65;3.58;;;14.20;99.90;;;;;;10030337;28;20038;-66
2022/09/23 08:38:29;;;;;;;4.32;3.00;;;14.30;99.90;;;;;;10039879;28;20543;-61
2022/09/23 08:43:28;;;;;;;4.13;2.78;;;14.30;99.90;;;;;;10029283;28;20076;-62
2022/09/23 08:48:30;;;;;;;5.88;2.67;;;14.40;99.90;;;;;;10019386;28;20025;-65
2022/09/23 08:53:31;;;;;;;8.73;2.75;;;14.50;99.90;;;;;;10020634;28;20034;-61
2022/09/23 08:58:57;;;;;;;3.90;2.83;;;14.50;99.90;;;;;;10023427;28;20484;-62
2022/09/23 09:04:00;;;;;;;3.17;2.08;;;14.70;99.70;;;;;;9937846;28;20049;-57
2022/09/23 09:09:00;;;;;;;6.20;2.80;;;14.80;99.60;;;;;;10026338;28;20423;-59
2022/09/23 09:14:10;;;;;;;3.85;2.30;;;14.90;99.50;;;;;;10020162;28;20034;-60
2022/09/23 09:19:02;;;;;;;3.15;2.58;;;15.10;99.40;;;;;;10018403;28;20635;-59
2022/09/23 09:23:55;;;;;;;7.22;2.72;;;15.10;99.30;;;;;;10018214;28;20096;-60
2022/09/23 09:28:52;;;;;;;5.85;3.17;;;15.30;99.30;;;;;;10015981;28;20113;-60
2022/09/23 09:34:05;;;;;;;5.70;3.13;;;15.40;99.10;;;;;;10034429;28;20547;-64
2022/09/23 09:38:58;;;;;;;3.92;2.67;;;15.60;99.00;;;;;;10031326;28;20118;-60
2022/09/23 09:43:55;;;;;;;7.22;3.60;;;15.80;98.90;;;;;;10022949;28;20044;-60
2022/09/23 09:49:12;;;;;;;4.45;3.58;;;15.90;98.80;;;;;;10020000;28;20076;-59
2022/09/23 09:54:24;;;;;;;3.45;2.67;;;15.90;98.80;;;;;;10018784;28;20042;-61
2022/09/23 09:59:22;;;;;;;2.88;2.03;;;16.10;98.60;;;;;;10030096;28;20014;-65
2022/09/23 10:04:34;;;;;;;4.22;2.42;;;16.30;98.50;;;;;;10028450;28;20031;-60
2022/09/23 10:09:34;;;;;;;3.42;2.42;;;16.40;98.30;;;;;;10032042;28;20025;-62
2022/09/23 10:14:25;;;;;;;6.90;2.58;;;16.70;98.20;;;;;;10017732;28;20120;-59
2022/09/23 10:19:27;;;;;;;4.65;2.38;;;16.80;98.10;;;;;;10018001;28;20026;-58
2022/09/23 10:24:22;;;;;;;3.97;2.55;;;16.90;97.90;;;;;;10014475;28;20052;-62
2022/09/23 10:29:22;;;;;;;4.70;2.23;;;17.10;97.80;;;;;;10027808;28;20141;-61
2022/09/23 10:34:33;;;;;;;3.92;2.22;;;17.40;97.50;;;;;;10032161;28;20050;-62
2022/09/23 10:50:52;;;;;;;4.57;2.20;;;17.80;97.20;;;;;;10025124;28;20108;-59
2022/09/23 10:55:54;;;;;;;4.85;3.00;;;18.00;97.00;;;;;;10002106;28;20030;-62
2022/09/23 11:01:15;;;;;;;4.97;2.85;;;18.30;96.90;;;;;;10026174;28;20040;-59
2022/09/23 11:06:34;;;;;;;4.60;2.85;;;18.40;96.70;;;;;;10007965;28;20034;-57
2022/09/23 11:11:37;;;;;;;4.88;3.35;;;18.60;96.40;;;;;;10023892;28;20411;-61
2022/09/23 11:16:28;;;;;;;5.15;2.45;;;18.80;96.30;;;;;;10020086;28;20484;-61
2022/09/23 11:21:45;;;;;;;5.05;2.65;;;19.00;96.30;;;;;;10018292;28;20017;-58
2022/09/23 11:26:53;;;;;;;4.30;2.70;;;19.40;95.90;;;;;;10013791;28;20496;-58
2022/09/23 11:32:19;;;;;;;6.45;3.78;;;19.40;95.90;;;;;;10026003;28;20038;-61
2022/09/23 11:37:16;;;;;;;5.80;3.33;;;19.60;95.70;;;;;;10020870;28;20041;-54
2022/09/23 11:42:16;;;;;;;3.47;2.42;;;19.30;95.80;;;;;;10015166;28;20030;-63
2022/09/23 11:47:14;;;;;;;3.55;2.58;;;19.30;95.60;;;;;;10026240;28;20030;-64
2022/09/23 11:52:07;;;;;;;3.28;2.30;;;19.50;95.30;;;;;;10028211;28;20100;-61
2022/09/23 11:57:03;;;;;;;4.13;2.28;;;19.70;94.90;;;;;;10023345;28;20018;-62
2022/09/23 12:01:58;;;;;;;2.80;2.03;;;19.90;94.60;;;;;;10027067;28;20040;-60
2022/09/23 12:06:58;;;;;;;3.45;2.42;;;19.90;94.50;;;;;;10044075;28;20562;-59
2022/09/23 12:12:26;;;;;;;6.68;2.97;;;20.10;94.20;;;;;;10035950;28;20454;-59
2022/09/23 12:17:25;;;;;;;5.10;2.67;;;20.40;93.80;;;;;;10013831;28;20022;-59
2022/09/23 12:22:31;;;;;;;3.40;2.08;;;20.50;93.70;;;;;;10020137;28;20057;-59
2022/09/23 12:27:36;;;;;;;5.30;2.72;;;20.70;93.50;;;;;;10007760;28;20053;-58
2022/09/23 12:32:27;;;;;;;4.60;2.70;;;20.90;93.20;;;;;;10008487;28;20056;-59
2022/09/23 12:37:31;;;;;;;10.70;4.65;;;21.00;93.10;;;;;;10046909;28;20075;-61
2022/09/23 12:42:23;;;;;;;3.50;2.55;;;21.20;93.00;;;;;;10038173;28;20029;-60
2022/09/23 12:47:13;;;;;;;3.70;2.22;;;21.30;92.90;;;;;;10023697;28;20057;-59
2022/09/23 12:52:16;;;;;;;4.10;2.30;;;21.40;92.70;;;;;;10020329;28;20034;-58
2022/09/23 12:57:11;;;;;;;5.07;2.72;;;21.60;92.60;;;;;;10020032;28;20037;-59
2022/09/23 13:02:36;;;;;;;4.43;1.92;;;21.50;92.40;;;;;;10018617;28;20038;-58
2022/09/23 13:07:33;;;;;;;2.03;1.83;;;21.40;91.90;;;;;;9965201;28;20587;-59
2022/09/23 13:12:29;;;;;;;3.50;2.83;;;21.00;92.30;;;;;;9993605;28;20109;-58
2022/09/23 13:17:30;;;;;;;6.38;2.90;;;20.90;92.20;;;;;;9987822;28;20134;-59
2022/09/23 13:22:40;;;;;;;3.92;2.08;;;20.90;92.00;;;;;;9990492;28;20476;-61
2022/09/23 13:27:33;;;;;;;5.35;2.70;;;21.00;91.80;;;;;;9992331;28;20029;-59
2022/09/23 13:32:52;;;;;;;3.25;2.10;;;21.00;91.70;;;;;;9983444;28;20045;-61
2022/09/23 13:37:46;;;;;;;3.53;2.08;;;21.00;91.40;;;;;;9991590;28;20097;-59
2022/09/23 13:42:39;;;;;;;;;;;21.40;91.70;;;;;;9994311;28;20162;-62
2022/09/23 13:47:32;;;;;;;3.35;1.83;;;22.90;91.10;;;;;;9990097;28;20454;-61
2022/09/23 13:52:31;;;;;;;3.05;2.20;;;23.40;91.00;;;;;;9983882;28;20323;-59
2022/09/23 13:57:25;;;;;;;6.05;2.63;;;23.60;90.60;;;;;;9993006;28;20034;-59
2022/09/23 14:02:16;;;;;;;3.55;1.77;;;23.60;90.30;;;;;;9986959;28;20101;-62
2022/09/23 14:07:09;;;;;;;3.80;1.83;;;23.40;90.00;;;;;;9996102;28;20124;-65
2022/09/23 14:12:00;;;;;;;5.70;2.25;;;22.70;89.70;;;;;;10014047;28;20129;-66
2022/09/23 14:16:52;;;;;;;3.00;2.15;;;22.40;89.30;;;;;;10024021;28;20112;-68
2022/09/23 14:21:45;;;;;;;4.80;3.55;;;22.00;88.80;;;;;;10021540;28;20030;-67
2022/09/23 14:26:38;;;;;;;4.55;2.20;;;21.70;88.70;;;;;;10016385;28;20025;-65
2022/09/23 14:31:29;;;;;;;7.43;2.95;;;21.50;88.30;;;;;;10042633;28;20111;-63
2022/09/23 14:41:34;;;;;;;3.08;2.00;;;20.80;88.60;;;;;;10030921;28;20049;-60
2022/09/23 14:46:33;;;;;;;4.43;2.50;;;20.50;88.60;;;;;;10025638;28;20505;-58
2022/09/23 14:51:45;;;;;;;4.05;1.75;;;20.60;88.10;;;;;;10001241;28;20046;-59
2022/09/23 14:56:41;;;;;;;3.03;2.05;;;20.60;87.90;;;;;;9993794;28;20042;-61
2022/09/23 15:01:33;;;;;;;6.35;2.30;;;20.40;88.20;;;;;;10019452;28;20022;-63
2022/09/23 15:06:24;;;;;;;3.33;2.00;;;20.40;88.30;;;;;;10026203;28;20367;-62
2022/09/23 15:11:15;;;;;;;3.15;2.08;;;20.40;88.20;;;;;;10031594;28;20101;-64
2022/09/23 15:16:06;;;;;;;2.05;1.80;;;20.70;87.70;;;;;;9992494;28;20107;-58
2022/09/23 15:21:02;;;;;;;3.25;1.65;;;20.70;87.90;;;;;;9992885;28;20022;-58
2022/09/23 15:25:52;;;;;;;3.45;2.05;;;20.80;87.60;;;;;;9979038;28;20093;-60
2022/09/23 15:30:44;;;;;;;4.50;2.75;;;20.80;87.70;;;;;;9979065;28;20575;-61
2022/09/23 15:35:35;;;;;;;6.13;3.30;;;20.80;87.60;;;;;;9989547;28;20168;-60
2022/09/23 15:40:28;;;;;;;4.10;3.13;;;20.60;87.90;;;;;;9990732;28;20166;-59
2022/09/23 15:45:26;;;;;;;5.10;3.00;;;20.60;88.00;;;;;;9988706;28;20033;-58
2022/09/23 15:50:18;;;;;;;4.75;3.25;;;20.30;87.90;;;;;;9988879;28;20057;-58
2022/09/23 15:55:20;;;;;;;3.67;2.28;;;20.20;88.20;;;;;;9994717;28;20105;-57
2022/09/23 16:00:12;;;;;;;4.07;2.28;;;20.00;88.40;;;;;;9984688;28;20025;-53
2022/09/23 16:05:05;;;;;;;4.32;2.55;;;19.90;88.40;;;;;;9986974;28;20106;-59
2022/09/23 16:09:57;;;;;;;3.60;2.00;;;19.80;88.40;;;;;;10024650;28;20030;-57
2022/09/23 16:14:48;;;;;;;3.58;2.20;;;19.60;88.70;;;;;;10015507;28;20101;-61
2022/09/23 16:19:38;;;;;;;3.97;2.00;;;19.50;88.90;;;;;;10012698;28;20041;-57
2022/09/23 16:24:29;;;;;;;3.40;2.30;;;19.40;89.30;;;;;;10024708;28;20017;-62
2022/09/23 16:29:20;;;;;;;2.78;2.58;;;19.30;89.40;;;;;;10023428;28;20561;-61
2022/09/23 16:34:10;;;;;;;4.07;1.95;;;19.30;89.70;;;;;;10038369;28;20053;-60
2022/09/23 16:39:04;;;;;;;4.88;2.70;;;19.30;89.90;;;;;;10043489;28;20050;-59
2022/09/23 16:43:56;;;;;;;2.53;1.92;;;19.20;90.00;;;;;;9991454;23;20477;-61
2022/09/23 16:48:46;;;;;;;5.75;2.58;;;19.20;90.10;;;;;;9964911;28;20022;-59
2022/09/23 16:53:38;;;;;;;4.18;2.30;;;19.20;90.10;;;;;;9946740;28;20042;-60
2022/09/23 16:58:28;;;;;;;7.97;4.38;;;19.10;90.20;;;;;;9952863;28;20393;-61
2022/09/23 17:08:28;;;;;;;7.78;3.63;;;19.00;90.50;;;;;;9965090;28;20433;-59
2022/09/23 17:13:19;;;;;;;7.40;3.80;;;18.90;90.70;;;;;;9961563;28;20041;-60
2022/09/23 17:18:10;;;;;;;7.68;2.92;;;18.80;91.10;;;;;;9965133;28;20194;-60
2022/09/23 17:23:04;;;;;;;8.02;4.38;;;18.70;91.00;;;;;;9957910;28;20058;-60
2022/09/23 17:27:54;;;;;;;9.15;4.25;;;18.60;91.20;;;;;;9968520;28;20057;-59
2022/09/23 17:32:46;;;;;;;7.43;4.57;;;18.60;91.40;;;;;;9961709;28;20558;-58
2022/09/23 17:37:36;;;;;;;9.18;4.20;;;18.50;91.60;;;;;;9967769;28;20512;-60
2022/09/23 17:42:27;;;;;;;9.25;3.70;;;18.40;91.80;;;;;;9958916;28;20127;-59
2022/09/23 17:47:18;;;;;;;8.75;5.35;;;18.30;92.10;;;;;;9965285;28;20030;-59
2022/09/23 17:52:08;;;;;;;15.93;5.20;;;18.30;92.20;;;;;;9956245;28;20069;-60
2022/09/23 17:56:59;;;;;;;11.18;5.93;;;18.30;92.40;;;;;;9956659;28;20033;-58
2022/09/23 18:01:50;;;;;;;8.30;4.30;;;18.20;92.60;;;;;;9936895;28;20536;-59
2022/09/23 18:06:40;;;;;;;9.02;4.50;;;18.10;92.80;;;;;;9955389;28;20023;-59
2022/09/23 18:11:36;;;;;;;9.13;4.57;;;18.10;93.00;;;;;;9956326;28;20497;-60
2022/09/23 18:16:29;;;;;;;9.52;5.43;;;18.10;93.40;;;;;;9970992;28;20572;-60
2022/09/23 18:21:22;;;;;;;10.88;6.72;;;18.00;93.20;;;;;;9975997;28;20034;-59
2022/09/23 18:26:18;;;;;;;13.18;5.50;;;18.00;93.40;;;;;;9949022;28;20018;-59
2022/09/23 18:31:09;;;;;;;15.85;7.70;;;18.00;93.50;;;;;;9966232;28;20039;-60
2022/09/23 18:36:00;;;;;;;12.30;6.95;;;18.00;93.60;;;;;;9976579;28;20112;-59
2022/09/23 18:40:57;;;;;;;13.43;6.15;;;18.00;93.80;;;;;;9965011;28;20101;-59
2022/09/23 18:45:58;;;;;;;11.05;5.35;;;17.90;93.90;;;;;;9970956;28;20026;-60
2022/09/23 18:50:50;;;;;;;7.78;4.95;;;17.90;94.10;;;;;;9967876;28;20670;-59
2022/09/23 18:55:41;;;;;;;12.98;7.22;;;17.80;94.10;;;;;;9963225;28;20242;-59
2022/09/23 19:00:32;;;;;;;10.93;5.30;;;17.80;94.20;;;;;;9974331;28;20507;-60
2022/09/23 19:05:23;;;;;;;9.15;4.80;;;17.80;94.40;;;;;;9965151;28;20034;-60
2022/09/23 19:10:14;;;;;;;11.23;5.45;;;17.70;94.40;;;;;;9974199;28;20243;-60
2022/09/23 19:15:05;;;;;;;7.60;4.93;;;17.70;94.50;;;;;;9961871;28;20027;-60
2022/09/23 19:19:57;;;;;;;10.63;6.55;;;17.60;94.60;;;;;;9961091;28;20499;-60
2022/09/23 19:24:48;;;;;;;9.27;5.22;;;17.70;94.70;;;;;;9958350;28;20031;-60
2022/09/23 19:29:39;;;;;;;7.70;5.10;;;17.60;94.70;;;;;;9953307;28;20489;-60
2022/09/23 19:34:29;;;;;;;8.18;5.55;;;17.60;94.80;;;;;;9972170;28;20070;-60
2022/09/23 19:39:26;;;;;;;7.85;4.95;;;17.50;94.90;;;;;;9964420;28;20556;-58
2022/09/23 19:44:18;;;;;;;9.60;5.07;;;17.50;95.10;;;;;;9960613;28;20046;-59
2022/09/23 19:49:10;;;;;;;9.10;5.65;;;17.40;95.20;;;;;;9962613;28;20042;-60
2022/09/23 19:54:01;;;;;;;10.77;5.55;;;17.30;95.30;;;;;;9952379;28;20034;-60
2022/09/23 19:58:53;;;;;;;8.45;4.97;;;17.30;95.30;;;;;;9971320;28;20027;-60
2022/09/23 20:03:44;;;;;;;6.03;4.75;;;17.30;95.50;;;;;;9980699;28;20056;-60
2022/09/23 20:08:36;;;;;;;7.78;5.13;;;17.30;95.70;;;;;;9972782;28;20031;-59
2022/09/23 20:13:27;;;;;;;7.82;4.70;;;17.30;95.80;;;;;;9965681;28;20048;-60
2022/09/23 20:18:18;;;;;;;7.30;5.03;;;17.30;95.90;;;;;;9972187;28;20391;-60
2022/09/23 20:23:08;;;;;;;9.00;5.90;;;17.30;95.90;;;;;;9966017;28;20019;-60
2022/09/23 20:27:59;;;;;;;8.30;4.57;;;17.30;96.00;;;;;;9962841;28;20468;-60
2022/09/23 20:32:50;;;;;;;7.60;4.10;;;17.20;96.10;;;;;;9977332;28;20731;-60
2022/09/23 20:37:40;;;;;;;9.25;5.40;;;17.20;96.20;;;;;;9970599;28;20023;-59
2022/09/23 20:42:31;;;;;;;8.90;4.75;;;17.10;96.20;;;;;;9969324;28;20129;-58
2022/09/23 20:47:23;;;;;;;9.10;4.45;;;17.10;96.30;;;;;;9963119;28;20171;-59
2022/09/23 20:52:16;;;;;;;8.10;5.38;;;17.00;96.40;;;;;;9954884;28;20041;-59
2022/09/23 20:57:09;;;;;;;15.57;6.65;;;17.10;96.50;;;;;;9961743;28;20019;-60
2022/09/23 21:02:01;;;;;;;8.35;5.13;;;17.00;96.50;;;;;;9975531;28;20042;-61
2022/09/23 21:06:52;;;;;;;8.93;5.38;;;17.00;96.70;;;;;;10015445;23;20131;-69
2022/09/23 21:11:43;;;;;;;13.13;6.75;;;17.00;96.80;;;;;;10073979;28;20040;-72
2022/09/23 21:16:34;;;;;;;9.80;5.38;;;17.00;96.90;;;;;;10079952;28;20028;-70
2022/09/23 21:21:24;;;;;;;12.30;5.85;;;16.90;97.20;;;;;;10079786;28;21739;-67
2022/09/23 21:26:22;;;;;;;21.45;12.10;;;16.90;97.30;;;;;;10059005;28;20026;-68
2022/09/23 21:31:21;;;;;;;20.55;10.77;;;16.80;97.40;;;;;;10083504;28;20498;-68
2022/09/23 21:36:12;;;;;;;9.15;5.28;;;16.70;97.50;;;;;;10069655;28;20030;-69
2022/09/23 21:41:06;;;;;;;7.22;4.70;;;16.60;97.70;;;;;;10073042;28;20029;-68
2022/09/23 21:45:58;;;;;;;9.18;4.38;;;16.80;97.70;;;;;;10070906;28;20116;-68
2022/09/23 21:51:03;;;;;;;9.60;5.85;;;16.70;97.80;;;;;;10072851;28;20032;-69
2022/09/23 21:56:12;;;;;;;11.87;6.20;;;16.70;98.00;;;;;;10083424;28;20137;-68
2022/09/23 22:01:07;;;;;;;6.28;4.72;;;16.60;98.00;;;;;;10066109;28;20237;-70
2022/09/23 22:06:01;;;;;;;6.20;4.57;;;16.60;98.10;;;;;;10062193;28;20057;-68
2022/09/23 22:10:51;;;;;;;7.63;4.32;;;16.60;98.10;;;;;;10075262;28;20033;-66
2022/09/23 22:15:42;;;;;;;8.23;4.28;;;16.60;98.20;;;;;;10079646;28;20021;-69
2022/09/23 22:20:33;;;;;;;9.68;5.38;;;16.60;98.10;;;;;;10063811;28;20017;-68
2022/09/23 22:25:24;;;;;;;4.93;3.67;;;16.40;98.20;;;;;;10060953;28;20380;-72
2022/09/23 22:35:23;;;;;;;5.70;4.28;;;16.50;98.30;;;;;;10070444;28;20044;-71
2022/09/23 22:40:14;;;;;;;7.03;4.25;;;16.50;98.30;;;;;;10065747;28;20060;-70
2022/09/23 22:45:06;;;;;;;13.80;5.28;;;16.60;98.30;;;;;;10064266;28;20154;-68
2022/09/23 22:49:57;;;;;;;8.30;3.92;;;16.50;98.30;;;;;;10072640;28;20029;-70
2022/09/23 22:54:48;;;;;;;10.68;4.72;;;16.50;98.30;;;;;;10084976;28;20073;-69
2022/09/23 22:59:38;;;;;;;10.60;4.43;;;16.50;98.30;;;;;;10070736;28;20022;-69
2022/09/23 23:04:29;;;;;;;5.63;3.67;;;16.50;98.40;;;;;;10070301;28;20017;-70
2022/09/23 23:09:20;;;;;;;7.45;4.28;;;16.50;98.40;;;;;;10066265;28;20045;-69
2022/09/23 23:14:12;;;;;;;6.60;4.35;;;16.40;98.40;;;;;;10073582;28;20455;-68
2022/09/23 23:19:05;;;;;;;4.68;3.65;;;16.40;98.50;;;;;;10066086;28;20503;-69
2022/09/23 23:23:56;;;;;;;6.63;4.25;;;16.40;98.50;;;;;;10055568;28;20030;-68
2022/09/23 23:28:49;;;;;;;8.43;3.67;;;16.30;98.60;;;;;;10071027;28;20040;-69
2022/09/23 23:33:41;;;;;;;10.48;3.83;;;16.40;98.60;;;;;;10086682;28;20516;-70
2022/09/23 23:38:36;;;;;;;5.38;4.22;;;16.40;98.60;;;;;;10065370;28;20040;-69
2022/09/23 23:43:27;;;;;;;8.52;4.47;;;16.40;98.60;;;;;;10066139;28;20038;-68
2022/09/23 23:48:19;;;;;;;5.97;3.88;;;16.30;98.60;;;;;;10073078;28;20021;-71
2022/09/23 23:53:10;;;;;;;6.03;4.38;;;16.40;98.60;;;;;;10077468;28;20043;-70
2022/09/23 23:58:01;;;;;;;8.38;5.15;;;16.30;98.60;;;;;;10077068;28;20026;-69
